Bemidji, Minnesota
Current Conditions -  °F | °C
As of 6:53 PM on Wednesday 22 Oct 2014 (Local Time) from KBJI Reporting Station
Overcast Overcast  
Wind Chill: 56°   Ceiling: 4000
Heat Index: 56°   Visibility: 10mi
Dew Point: 43°   Wind: 12mph
Humidity: 61%   Direction: 170°S
Pressure: 29.91"   Gusts: 18mph
Location:  47.47°N, 94.88°W
Report Text: KBJI 222353Z AUTO 17010G16KT 10SM OVC040 14/06 A2991 RMK AO2 T01360061
Loading
Personal Weather Stations






























Interactive Weather Map New forecast layout! Learn more

10-Day Weather Forecast

Advertisements
Track Severe Weather on mobile